Time;durP1;ratioP1;P1;durP2;ratioP2;P2;SDS_P1;SDS_P2;PMS_P1;PMS_P2;Temp;Humidity;BMP_temperature;BMP_pressure;BME280_temperature;BME280_humidity;BME280_pressure;Samples;Min_cycle;Max_cycle;Signal;HPM_P1;HPM_P2
2023/12/26 00:00:56;;;;;;;8.23;1.63;;;;;;;18.73;58.29;100200.16;5029106;28;20611;-70
2023/12/26 00:03:22;;;;;;;7.73;1.63;;;;;;;18.72;58.21;100193.59;5015834;28;20180;-70
2023/12/26 00:05:47;;;;;;;4.37;1.60;;;;;;;18.72;58.33;100198.50;5020393;28;20172;-71
2023/12/26 00:08:13;;;;;;;5.40;1.50;;;;;;;18.70;58.75;100198.88;4996147;28;20223;-70
2023/12/26 00:10:38;;;;;;;4.83;1.50;;;;;;;18.71;58.62;100197.66;5029225;28;20171;-71
2023/12/26 00:13:04;;;;;;;7.03;2.10;;;;;;;18.73;58.42;100200.16;5026648;28;20172;-70
2023/12/26 00:15:29;;;;;;;5.20;1.73;;;;;;;18.72;58.25;100198.50;5028531;28;20172;-71
2023/12/26 00:17:55;;;;;;;4.70;1.63;;;;;;;18.72;58.55;100192.78;5001395;28;20177;-71
2023/12/26 00:20:20;;;;;;;8.87;1.60;;;;;;;18.71;58.60;100194.81;4992844;28;20292;-71
2023/12/26 00:22:46;;;;;;;7.70;1.97;;;;;;;18.71;58.37;100196.84;5014133;28;20234;-74
2023/12/26 00:25:12;;;;;;;4.10;1.40;;;;;;;18.72;58.41;100199.31;5023522;28;20184;-70
2023/12/26 00:27:39;;;;;;;5.10;1.70;;;;;;;18.73;58.24;100203.84;5009971;28;20204;-70
2023/12/26 00:30:05;;;;;;;10.90;1.30;;;;;;;18.75;58.30;100204.28;5009132;28;20184;-70
2023/12/26 00:32:31;;;;;;;6.37;1.83;;;;;;;18.72;58.18;100207.09;5028578;28;20425;-70
2023/12/26 00:34:58;;;;;;;7.30;1.40;;;;;;;18.73;58.11;100212.44;5022103;28;20442;-70
2023/12/26 00:37:23;;;;;;;4.43;1.30;;;;;;;18.71;58.43;100211.97;4989668;28;20185;-70
2023/12/26 00:39:49;;;;;;;4.33;1.07;;;;;;;18.72;58.21;100215.66;4990546;28;20413;-70
2023/12/26 00:42:14;;;;;;;4.10;1.70;;;;;;;18.72;58.29;100204.22;5004652;28;20366;-70
2023/12/26 00:44:40;;;;;;;5.97;1.43;;;;;;;18.72;58.31;100213.59;5009724;28;20404;-70
2023/12/26 00:47:05;;;;;;;4.97;1.50;;;;;;;18.69;58.20;100217.25;5013900;28;20810;-74
2023/12/26 00:49:31;;;;;;;4.87;2.10;;;;;;;18.70;58.36;100218.91;4999122;28;20384;-73
2023/12/26 00:51:56;;;;;;;9.50;2.10;;;;;;;18.71;58.16;100214.03;4998068;28;20187;-69
2023/12/26 00:54:22;;;;;;;7.63;1.50;;;;;;;18.71;58.39;100219.75;4998298;28;20180;-70
2023/12/26 00:56:47;;;;;;;3.57;1.50;;;;;;;18.70;58.46;100223.78;5024511;28;20161;-70
2023/12/26 00:59:12;;;;;;;3.50;1.23;;;;;;;18.69;58.24;100216.41;4992135;28;20187;-71
2023/12/26 01:01:38;;;;;;;4.50;1.50;;;;;;;18.70;59.12;100213.19;4980680;28;20181;-71
2023/12/26 01:04:06;;;;;;;4.83;1.67;;;;;;;18.70;58.65;100218.91;5010180;28;20186;-70
2023/12/26 01:06:32;;;;;;;3.70;1.30;;;;;;;18.71;58.31;100214.03;4991716;28;20271;-69
2023/12/26 01:08:58;;;;;;;3.30;1.43;;;;;;;18.70;58.52;100223.78;4999329;28;20437;-70
2023/12/26 01:11:23;;;;;;;5.40;2.10;;;;;;;18.69;58.36;100225.00;5011935;28;20654;-71
2023/12/26 01:13:49;;;;;;;3.87;1.20;;;;;;;18.68;58.58;100237.66;4995990;28;20204;-70
2023/12/26 01:16:14;;;;;;;6.83;1.50;;;;;;;18.68;58.34;100234.78;4991865;28;20192;-71
2023/12/26 01:18:40;;;;;;;4.60;1.60;;;;;;;18.65;58.46;100244.97;4993085;28;20183;-71
2023/12/26 01:21:08;;;;;;;5.40;1.60;;;;;;;18.65;58.74;100236.38;4995190;28;20608;-71
2023/12/26 01:23:34;;;;;;;4.10;2.00;;;;;;;18.66;58.66;100245.81;4996065;28;20664;-70
2023/12/26 01:25:59;;;;;;;3.80;1.47;;;;;;;18.64;58.71;100254.75;5029371;28;20411;-71
2023/12/26 01:28:25;;;;;;;5.83;1.77;;;;;;;18.66;58.32;100246.59;4997634;28;20535;-74
2023/12/26 01:30:50;;;;;;;5.83;1.43;;;;;;;18.64;58.28;100246.19;4991542;28;20239;-72
2023/12/26 01:33:16;;;;;;;6.00;1.70;;;;;;;18.66;58.38;100245.81;5010574;28;20616;-73
2023/12/26 01:35:41;;;;;;;4.50;1.57;;;;;;;18.65;58.40;100244.97;4994948;28;20736;-74
2023/12/26 01:38:07;;;;;;;4.53;1.30;;;;;;;18.64;58.40;100248.19;4994320;28;20268;-74
2023/12/26 01:40:32;;;;;;;5.33;1.40;;;;;;;18.65;58.20;100252.69;4994814;28;20203;-74
2023/12/26 01:42:57;;;;;;;6.83;1.47;;;;;;;18.64;58.42;100253.91;5015402;28;20229;-73
2023/12/26 01:45:23;;;;;;;4.20;1.20;;;;;;;18.62;58.61;100257.16;5029352;28;20222;-74
2023/12/26 01:47:53;;;;;;;4.97;1.70;;;;;;;18.66;58.20;100263.75;4997609;28;20200;-74
2023/12/26 01:50:19;;;;;;;3.60;1.57;;;;;;;18.64;58.43;100266.19;5016050;28;20259;-74
2023/12/26 01:52:44;;;;;;;3.60;1.30;;;;;;;18.61;58.57;100261.22;4998179;28;20442;-74
2023/12/26 01:55:11;;;;;;;4.60;1.10;;;;;;;18.65;58.37;100259.25;5014293;28;20431;-74
2023/12/26 01:57:39;;;;;;;4.07;1.07;;;;;;;18.63;58.73;100267.41;5031411;28;20212;-74
2023/12/26 02:00:39;;;;;;;3.50;1.10;;;;;;;18.64;58.34;100260.47;5034629;28;20901;-74
2023/12/26 02:03:04;;;;;;;3.60;1.23;;;;;;;18.63;58.34;100269.44;5029257;28;20453;-74
2023/12/26 02:05:30;;;;;;;4.57;1.20;;;;;;;18.59;58.55;100269.38;5021350;28;20435;-70
2023/12/26 02:07:56;;;;;;;3.13;0.97;;;;;;;18.60;58.51;100276.75;5044782;28;20208;-70
2023/12/26 02:10:21;;;;;;;4.83;1.70;;;;;;;18.63;58.27;100275.16;5017275;28;20187;-70
2023/12/26 02:12:47;;;;;;;4.70;1.60;;;;;;;18.62;58.57;100270.66;5062456;28;20164;-70
2023/12/26 02:15:14;;;;;;;4.73;1.07;;;;;;;18.62;58.39;100277.16;5041372;28;20188;-70
2023/12/26 02:17:39;;;;;;;3.87;1.27;;;;;;;18.60;58.47;100273.03;5053243;28;20188;-70
2023/12/26 02:20:05;;;;;;;3.57;1.00;;;;;;;18.62;58.73;100262.88;5027903;28;20416;-70
2023/12/26 02:22:31;;;;;;;4.40;1.50;;;;;;;18.60;58.15;100264.47;5045349;28;20179;-70
2023/12/26 02:24:56;;;;;;;7.20;1.60;;;;;;;18.61;58.20;100266.13;5028826;28;20290;-70
2023/12/26 02:27:26;;;;;;;4.13;1.20;;;;;;;18.59;58.42;100257.94;5063520;28;20458;-70
2023/12/26 02:29:52;;;;;;;5.60;1.30;;;;;;;18.56;59.00;100258.69;5033963;28;20189;-70
2023/12/26 02:32:18;;;;;;;2.53;1.17;;;;;;;18.60;58.56;100258.75;5018620;28;20451;-70
2023/12/26 02:34:45;;;;;;;3.03;1.20;;;;;;;18.59;58.37;100254.25;5016632;28;20431;-70
2023/12/26 02:37:10;;;;;;;2.97;1.00;;;;;;;18.60;58.65;100255.88;5027181;28;20463;-70
2023/12/26 02:39:36;;;;;;;5.60;1.50;;;;;;;18.57;58.75;100256.66;5026024;28;20447;-70
2023/12/26 02:42:01;;;;;;;3.00;1.23;;;;;;;18.56;58.97;100255.03;5046309;28;20184;-70
2023/12/26 02:44:27;;;;;;;3.70;1.20;;;;;;;18.57;58.59;100248.91;5026091;28;20250;-70
2023/12/26 02:46:52;;;;;;;5.37;1.70;;;;;;;18.59;58.33;100259.97;5037569;28;20215;-70
2023/12/26 02:49:17;;;;;;;2.13;1.10;;;;;;;18.58;58.78;100262.00;5030419;28;20257;-70
2023/12/26 02:51:43;;;;;;;3.97;1.00;;;;;;;18.56;58.46;100258.69;5025836;28;20183;-70
2023/12/26 02:54:08;;;;;;;6.10;1.20;;;;;;;18.57;58.62;100262.38;5027096;28;20164;-70
2023/12/26 02:56:34;;;;;;;3.67;1.10;;;;;;;18.55;58.86;100256.19;5043328;28;20173;-71
2023/12/26 02:58:59;;;;;;;2.80;1.13;;;;;;;18.58;58.45;100250.56;5010554;28;20181;-70
2023/12/26 03:01:25;;;;;;;3.87;1.27;;;;;;;18.55;59.01;100256.19;5014405;28;20245;-70
2023/12/26 03:03:50;;;;;;;5.20;1.33;;;;;;;18.56;58.43;100252.16;5029507;28;20164;-70
2023/12/26 03:06:15;;;;;;;4.43;1.33;;;;;;;18.56;58.49;100257.88;5036508;28;20180;-70
2023/12/26 03:08:41;;;;;;;3.20;1.10;;;;;;;18.55;58.56;100257.03;5043961;28;20226;-70
2023/12/26 03:11:06;;;;;;;5.70;1.43;;;;;;;18.56;58.48;100255.81;5034701;28;20177;-71
2023/12/26 03:13:32;;;;;;;3.10;1.40;;;;;;;18.54;58.77;100260.28;5022883;28;20263;-70
2023/12/26 03:15:57;;;;;;;2.63;1.00;;;;;;;18.55;58.50;100257.03;5033100;28;20549;-70
2023/12/26 03:18:23;;;;;;;5.00;1.40;;;;;;;18.53;58.82;100259.47;5033439;28;20165;-70
2023/12/26 03:20:48;;;;;;;2.67;1.20;;;;;;;18.53;58.60;100264.34;4999724;28;20176;-70
2023/12/26 03:23:14;;;;;;;5.00;1.13;;;;;;;18.52;58.60;100263.50;5032896;28;20172;-70
2023/12/26 03:25:40;;;;;;;3.23;1.57;;;;;;;18.54;58.59;100266.00;5017418;28;20203;-69
2023/12/26 03:28:06;;;;;;;3.30;1.00;;;;;;;18.53;58.48;100270.06;4999146;28;21182;-70
2023/12/26 03:30:32;;;;;;;2.57;1.03;;;;;;;18.53;58.86;100268.06;5031391;28;20528;-70
2023/12/26 03:32:57;;;;;;;7.10;1.93;;;;;;;18.51;58.68;100267.59;5016423;28;20434;-69
2023/12/26 03:35:22;;;;;;;3.30;1.23;;;;;;;18.52;58.28;100274.94;5013780;28;20225;-70
2023/12/26 03:37:48;;;;;;;3.73;1.20;;;;;;;18.51;58.63;100266.78;5015434;28;20234;-70
2023/12/26 03:40:14;;;;;;;3.07;1.30;;;;;;;18.53;58.27;100262.34;5017603;28;20180;-70
2023/12/26 03:42:39;;;;;;;3.20;1.20;;;;;;;18.51;58.74;100270.44;5015667;28;20219;-70
2023/12/26 03:45:05;;;;;;;2.93;1.13;;;;;;;18.53;58.79;100258.63;5025052;28;20176;-70
2023/12/26 03:47:31;;;;;;;4.00;2.10;;;;;;;18.48;58.99;100262.66;5015532;28;20554;-71
2023/12/26 03:49:56;;;;;;;3.43;1.17;;;;;;;18.52;58.71;100257.78;5048222;28;20176;-70
2023/12/26 03:52:22;;;;;;;2.87;1.10;;;;;;;18.50;58.95;100265.09;5051993;28;20180;-70
2023/12/26 03:54:47;;;;;;;3.13;1.20;;;;;;;18.50;58.45;100271.66;5015509;28;20186;-70
2023/12/26 03:57:12;;;;;;;2.07;0.80;;;;;;;18.50;58.66;100267.97;5018050;28;20171;-70
2023/12/26 03:59:38;;;;;;;3.93;1.20;;;;;;;18.50;58.84;100270.81;5034158;28;20175;-70
2023/12/26 04:02:03;;;;;;;5.40;1.43;;;;;;;18.48;58.73;100265.50;5034669;28;20225;-70
2023/12/26 04:04:29;;;;;;;2.00;1.00;;;;;;;18.52;58.95;100262.72;4999624;28;20188;-70
2023/12/26 04:06:54;;;;;;;3.80;1.00;;;;;;;18.51;58.68;100255.34;5014730;28;20208;-70
2023/12/26 04:09:20;;;;;;;2.77;1.00;;;;;;;18.48;58.76;100262.66;5032423;28;20172;-71
2023/12/26 04:11:45;;;;;;;4.90;1.23;;;;;;;18.50;58.73;100259.38;5015420;28;20207;-71
2023/12/26 04:14:11;;;;;;;2.73;0.90;;;;;;;18.48;58.44;100253.25;5016063;28;20303;-70
2023/12/26 04:16:36;;;;;;;4.43;1.10;;;;;;;18.49;58.42;100258.56;4998643;28;20578;-70
2023/12/26 04:19:02;;;;;;;1.87;1.00;;;;;;;18.49;58.96;100264.28;5033872;28;20172;-71
2023/12/26 04:21:27;;;;;;;4.43;1.00;;;;;;;18.47;58.42;100265.88;5051446;28;20156;-70
2023/12/26 04:23:53;;;;;;;5.90;1.73;;;;;;;18.48;58.81;100273.25;5033870;28;20209;-70
2023/12/26 04:26:18;;;;;;;2.53;0.80;;;;;;;18.47;58.70;100260.97;5029176;28;20173;-70
2023/12/26 04:28:44;;;;;;;3.07;0.80;;;;;;;18.47;58.67;100263.84;4997973;28;20205;-70
2023/12/26 04:31:10;;;;;;;4.30;1.20;;;;;;;18.49;58.92;100272.88;4981235;28;20180;-70
2023/12/26 04:33:35;;;;;;;2.10;0.90;;;;;;;18.48;58.63;100285.53;4998265;28;21024;-70
2023/12/26 04:36:01;;;;;;;2.07;1.00;;;;;;;18.47;58.80;100278.13;5025592;28;20914;-71
2023/12/26 04:38:26;;;;;;;2.63;0.90;;;;;;;18.48;58.81;100278.97;5013974;28;20168;-70
2023/12/26 04:40:52;;;;;;;2.70;1.00;;;;;;;18.49;58.22;100281.44;5014825;28;20173;-70
2023/12/26 04:43:18;;;;;;;3.00;1.00;;;;;;;18.49;58.80;100269.19;5034221;28;20179;-70
2023/12/26 04:45:43;;;;;;;2.93;1.13;;;;;;;18.49;58.38;100264.28;5032577;28;20615;-71
2023/12/26 04:48:09;;;;;;;2.20;0.80;;;;;;;18.49;58.78;100274.88;5014420;28;20459;-70
2023/12/26 04:50:35;;;;;;;2.43;0.97;;;;;;;18.49;58.94;100272.88;5031575;28;20176;-70
2023/12/26 04:53:01;;;;;;;3.43;1.13;;;;;;;18.48;59.00;100276.94;5021202;28;20196;-70
2023/12/26 04:55:27;;;;;;;2.00;1.00;;;;;;;18.47;58.99;100278.13;5030835;28;20514;-70
2023/12/26 04:57:52;;;;;;;3.07;1.20;;;;;;;18.47;58.72;100289.56;5016696;28;20480;-70
2023/12/26 05:00:18;;;;;;;2.80;1.20;;;;;;;18.47;58.44;100294.47;5031452;28;20161;-70
2023/12/26 05:02:43;;;;;;;4.10;1.40;;;;;;;18.47;58.80;100295.28;5015159;28;20199;-70
2023/12/26 05:05:08;;;;;;;3.67;1.80;;;;;;;18.47;58.90;100285.91;5031276;28;20158;-70
2023/12/26 05:07:34;;;;;;;2.80;0.90;;;;;;;18.48;58.62;100282.66;5015170;28;20203;-71
2023/12/26 05:09:59;;;;;;;2.30;0.93;;;;;;;18.47;58.79;100283.03;5031794;28;20179;-70
2023/12/26 05:12:26;;;;;;;2.53;1.33;;;;;;;18.47;58.60;100286.69;5018068;28;20182;-70
2023/12/26 05:14:51;;;;;;;2.13;0.97;;;;;;;18.48;58.67;100284.69;5041337;28;20532;-70
2023/12/26 05:17:18;;;;;;;2.80;0.90;;;;;;;18.48;58.94;100291.25;5054990;28;20414;-69
2023/12/26 05:19:44;;;;;;;2.20;0.80;;;;;;;18.45;58.83;100294.84;5040682;28;20172;-70
2023/12/26 05:22:10;;;;;;;3.73;0.80;;;;;;;18.48;58.68;100291.25;5033097;28;20458;-70
2023/12/26 05:24:35;;;;;;;4.33;0.80;;;;;;;18.46;58.87;100290.78;5000304;28;20180;-70
2023/12/26 05:27:01;;;;;;;2.63;0.90;;;;;;;18.45;59.18;100294.00;5026383;28;20451;-70
2023/12/26 05:29:26;;;;;;;3.77;1.10;;;;;;;18.47;58.90;100289.56;5001178;28;20184;-70
2023/12/26 05:31:52;;;;;;;1.93;0.80;;;;;;;18.47;58.88;100289.56;5040484;28;20183;-70
2023/12/26 05:34:18;;;;;;;6.17;1.00;;;;;;;18.47;59.01;100294.47;5025245;28;20176;-70
2023/12/26 05:36:43;;;;;;;3.20;0.90;;;;;;;18.50;58.37;100294.53;4988988;28;20236;-71
2023/12/26 05:39:10;;;;;;;3.67;1.37;;;;;;;18.50;58.76;100300.25;4979395;28;20172;-71
2023/12/26 05:41:36;;;;;;;2.50;1.00;;;;;;;18.47;58.20;100298.13;4989007;28;20180;-70
2023/12/26 05:44:01;;;;;;;4.10;1.00;;;;;;;18.49;58.91;100297.75;5022897;28;20437;-70
2023/12/26 05:46:30;;;;;;;3.00;1.10;;;;;;;18.51;58.71;100301.09;5017646;28;20477;-71
2023/12/26 05:48:56;;;;;;;3.20;0.80;;;;;;;18.49;58.99;100307.19;4998891;28;20249;-71
2023/12/26 05:51:22;;;;;;;2.60;1.00;;;;;;;18.47;58.55;100311.63;5032735;28;20922;-71
2023/12/26 05:53:48;;;;;;;1.60;0.77;;;;;;;18.49;58.38;100312.91;5015025;28;20431;-70
2023/12/26 05:56:13;;;;;;;4.03;1.03;;;;;;;18.48;58.80;100314.09;5000142;28;20448;-71
2023/12/26 05:58:39;;;;;;;4.03;1.20;;;;;;;18.52;58.39;100323.56;5000940;28;20195;-71
2023/12/26 06:01:09;;;;;;;3.40;1.07;;;;;;;18.50;58.91;100328.84;5011354;28;20187;-71
2023/12/26 06:03:34;;;;;;;3.03;1.10;;;;;;;18.48;58.83;100330.41;5018098;28;20410;-71
2023/12/26 06:06:00;;;;;;;2.87;0.93;;;;;;;18.48;58.75;100336.97;4987762;28;20927;-70
2023/12/26 06:08:26;;;;;;;1.43;0.80;;;;;;;18.49;58.37;100337.78;5017958;28;20196;-71
2023/12/26 06:10:52;;;;;;;3.47;1.00;;;;;;;18.49;58.58;100350.06;4999039;28;20179;-71
2023/12/26 06:13:17;;;;;;;2.13;1.03;;;;;;;18.51;58.46;100356.22;4998368;28;20411;-71
2023/12/26 06:15:43;;;;;;;3.63;1.07;;;;;;;18.49;59.04;100361.50;4993789;28;20181;-71
2023/12/26 06:18:08;;;;;;;1.87;0.80;;;;;;;18.48;58.39;100365.56;4996570;28;20538;-71
2023/12/26 06:20:34;;;;;;;2.30;1.00;;;;;;;18.49;58.44;100367.22;4996544;28;20163;-71
2023/12/26 06:22:59;;;;;;;2.20;1.13;;;;;;;18.53;58.62;100362.41;4982094;28;20184;-71
2023/12/26 06:25:25;;;;;;;2.63;1.20;;;;;;;18.51;58.48;100359.06;5012561;28;20192;-70
2023/12/26 06:27:51;;;;;;;2.20;0.90;;;;;;;18.53;58.35;100355.84;5012846;28;20208;-71
2023/12/26 06:30:16;;;;;;;2.40;1.03;;;;;;;18.51;58.55;100356.22;4997337;28;20176;-71
2023/12/26 06:32:41;;;;;;;2.10;1.00;;;;;;;18.49;58.72;100350.06;5008748;28;20180;-71
2023/12/26 06:35:07;;;;;;;1.77;0.90;;;;;;;18.47;58.89;100352.44;5005406;28;20215;-71
2023/12/26 06:37:33;;;;;;;2.60;0.83;;;;;;;18.50;58.28;100351.72;4999207;28;20176;-70
2023/12/26 06:39:59;;;;;;;2.13;0.90;;;;;;;18.50;58.75;100340.28;4997672;28;20940;-71
2023/12/26 06:42:24;;;;;;;2.67;1.20;;;;;;;18.49;58.31;100335.75;4997379;28;20156;-71
2023/12/26 06:44:49;;;;;;;2.63;0.90;;;;;;;18.50;58.47;100346.00;5014329;28;20234;-70
2023/12/26 06:47:15;;;;;;;1.80;0.90;;;;;;;18.52;58.70;100343.56;5043452;28;20207;-70
2023/12/26 06:49:44;;;;;;;2.43;0.90;;;;;;;18.50;58.80;100345.16;5012897;28;20191;-70
2023/12/26 06:52:14;;;;;;;2.80;1.00;;;;;;;18.51;58.36;100356.22;5030235;28;20175;-70
2023/12/26 06:54:41;;;;;;;1.80;0.70;;;;;;;18.52;58.33;100365.63;5042874;28;20541;-70
2023/12/26 06:57:15;;;;;;;1.63;0.80;;;;;;;18.53;58.54;100364.41;5010693;28;20422;-70
2023/12/26 06:59:46;;;;;;;1.93;0.90;;;;;;;18.51;58.70;100372.56;5013915;28;20472;-70
2023/12/26 07:02:12;;;;;;;2.00;1.00;;;;;;;18.50;58.95;100388.03;5012034;28;20509;-70
2023/12/26 07:04:37;;;;;;;2.03;0.77;;;;;;;18.52;58.91;100379.91;5044066;28;20458;-70
2023/12/26 07:07:03;;;;;;;2.33;0.90;;;;;;;18.51;58.48;100381.13;4992203;28;20474;-70
2023/12/26 07:09:28;;;;;;;2.00;1.00;;;;;;;18.50;58.70;100388.88;5008803;28;20159;-70
2023/12/26 07:11:54;;;;;;;4.07;1.23;;;;;;;18.49;58.75;100384.38;5011793;28;20198;-70
2023/12/26 07:14:19;;;;;;;1.87;1.07;;;;;;;18.52;58.45;100392.16;5045294;28;20164;-70
2023/12/26 07:16:45;;;;;;;3.93;1.10;;;;;;;18.51;58.67;100393.38;5011398;28;20233;-71
2023/12/26 07:19:11;;;;;;;1.80;0.80;;;;;;;18.51;58.60;100387.66;5024748;28;20188;-70
2023/12/26 07:21:36;;;;;;;4.50;1.23;;;;;;;18.51;58.64;100393.38;5042503;28;20614;-70
2023/12/26 07:24:01;;;;;;;2.33;0.90;;;;;;;18.52;58.28;100400.75;4993938;28;20180;-71
2023/12/26 07:26:27;;;;;;;2.03;0.80;;;;;;;18.52;58.51;100412.19;5011978;28;20250;-70
2023/12/26 07:28:52;;;;;;;2.80;0.90;;;;;;;18.53;58.77;100413.84;5009670;28;20204;-70
2023/12/26 07:31:22;;;;;;;2.57;1.10;;;;;;;18.52;58.64;100411.38;5005966;28;20196;-70
2023/12/26 07:33:48;;;;;;;2.10;0.93;;;;;;;18.52;58.26;100417.91;5009813;28;21022;-70
2023/12/26 07:36:14;;;;;;;2.67;0.93;;;;;;;18.51;58.50;100416.25;5031731;28;20653;-70
2023/12/26 07:38:40;;;;;;;4.13;1.10;;;;;;;18.52;58.67;100417.09;5008217;28;20538;-70
2023/12/26 07:41:05;;;;;;;1.97;0.80;;;;;;;18.54;58.47;100421.22;5027837;28;20188;-70
2023/12/26 07:43:31;;;;;;;2.07;0.80;;;;;;;18.52;58.50;100422.81;5023595;28;20180;-70
2023/12/26 07:45:56;;;;;;;3.00;0.80;;;;;;;18.54;58.29;100415.50;5027751;28;20182;-70
2023/12/26 07:48:22;;;;;;;3.90;1.20;;;;;;;18.54;58.67;100431.81;5008719;28;20293;-70
2023/12/26 07:50:47;;;;;;;2.20;1.07;;;;;;;18.55;58.52;100434.31;5042236;28;20176;-70
2023/12/26 07:53:12;;;;;;;3.60;0.90;;;;;;;18.56;58.51;100440.88;5042817;28;20185;-70
2023/12/26 07:55:38;;;;;;;1.60;0.80;;;;;;;18.57;58.45;100454.75;5026251;28;20171;-70
2023/12/26 07:58:04;;;;;;;2.00;0.80;;;;;;;18.52;58.53;100452.22;5031523;28;20153;-70
2023/12/26 08:00:29;;;;;;;3.63;1.37;;;;;;;18.53;58.79;100448.16;5027038;28;20892;-70
2023/12/26 08:02:54;;;;;;;2.13;0.70;;;;;;;18.53;58.43;100445.31;5026827;28;20179;-71
2023/12/26 08:05:20;;;;;;;1.63;0.73;;;;;;;18.54;58.40;100464.09;5013868;28;20172;-71
2023/12/26 08:07:45;;;;;;;2.27;0.97;;;;;;;18.55;59.12;100462.91;5010613;28;20246;-71
2023/12/26 08:10:12;;;;;;;2.70;1.00;;;;;;;18.54;58.91;100466.13;5028970;28;20179;-70
2023/12/26 08:12:37;;;;;;;2.10;1.00;;;;;;;18.51;58.56;100466.91;5027090;28;20575;-71
2023/12/26 08:15:03;;;;;;;3.53;1.03;;;;;;;18.53;58.42;100482.47;5026469;28;20449;-71
2023/12/26 08:17:28;;;;;;;1.97;0.80;;;;;;;18.55;58.54;100485.78;5025707;28;20177;-71
2023/12/26 08:19:54;;;;;;;4.63;1.00;;;;;;;18.54;58.44;100481.25;5028668;28;20930;-71
2023/12/26 08:22:19;;;;;;;1.83;0.83;;;;;;;18.56;58.69;100489.47;5026945;28;20172;-70
2023/12/26 08:24:44;;;;;;;3.33;1.00;;;;;;;18.56;58.58;100483.75;5009715;28;20676;-70
2023/12/26 08:27:10;;;;;;;1.67;0.67;;;;;;;18.55;58.50;100490.66;5011041;28;20250;-70
2023/12/26 08:29:35;;;;;;;2.27;1.00;;;;;;;18.52;58.64;100489.38;5020806;28;20180;-70
2023/12/26 08:32:01;;;;;;;2.03;0.80;;;;;;;18.53;58.57;100488.19;5047231;28;20506;-71
2023/12/26 08:34:26;;;;;;;1.60;0.80;;;;;;;18.54;58.63;100501.28;5014667;28;20651;-71
2023/12/26 08:36:52;;;;;;;3.23;1.00;;;;;;;18.54;58.42;100506.16;5014181;28;20711;-70
2023/12/26 08:39:18;;;;;;;1.93;0.73;;;;;;;18.54;58.91;100512.72;4994286;28;20180;-70
2023/12/26 08:41:43;;;;;;;1.40;0.70;;;;;;;18.55;58.72;100508.66;5008642;28;20616;-70
2023/12/26 08:44:09;;;;;;;2.40;0.80;;;;;;;18.57;58.44;100523.38;4981583;28;20188;-71
2023/12/26 08:46:34;;;;;;;4.03;1.17;;;;;;;18.56;58.31;100518.06;5027843;28;20280;-71
2023/12/26 08:49:00;;;;;;;3.10;1.00;;;;;;;18.56;58.55;100524.59;5011392;28;20215;-70
2023/12/26 08:51:25;;;;;;;2.07;0.80;;;;;;;18.55;58.73;100540.09;5011433;28;20179;-70
2023/12/26 08:53:52;;;;;;;2.80;1.00;;;;;;;18.57;58.27;100540.53;5021254;28;20179;-71
2023/12/26 08:56:17;;;;;;;1.90;0.93;;;;;;;18.57;58.70;100539.72;5031720;28;20190;-71
2023/12/26 08:58:42;;;;;;;2.10;1.10;;;;;;;18.57;58.63;100542.59;5014356;28;20411;-71
2023/12/26 09:01:10;;;;;;;2.10;0.80;;;;;;;18.60;58.17;100538.97;5044097;28;20179;-70
2023/12/26 09:03:36;;;;;;;1.73;0.80;;;;;;;18.58;58.67;100547.94;5030902;28;20266;-71
2023/12/26 09:06:01;;;;;;;1.90;1.00;;;;;;;18.57;58.46;100545.44;5020177;28;20416;-74
2023/12/26 09:08:27;;;;;;;2.07;0.87;;;;;;;18.59;58.50;100546.72;5007466;28;20235;-73
2023/12/26 09:10:52;;;;;;;2.30;0.97;;;;;;;18.55;58.74;100540.09;5028261;28;20191;-74
2023/12/26 09:13:20;;;;;;;2.97;0.70;;;;;;;18.55;58.49;100540.09;5047110;28;20251;-74
2023/12/26 09:15:47;;;;;;;2.73;0.80;;;;;;;18.57;58.44;100540.53;5018663;28;20200;-74
2023/12/26 09:18:13;;;;;;;1.90;0.87;;;;;;;18.57;58.55;100540.53;5008255;28;20424;-74
2023/12/26 09:20:38;;;;;;;2.90;0.70;;;;;;;18.61;58.70;100549.22;4992471;28;20428;-73
2023/12/26 09:23:04;;;;;;;1.53;0.70;;;;;;;18.57;58.21;100551.16;4991773;28;20235;-74
2023/12/26 09:25:29;;;;;;;2.07;0.70;;;;;;;18.57;58.85;100563.41;5004739;28;20180;-74
2023/12/26 09:27:55;;;;;;;1.87;0.93;;;;;;;18.59;58.16;100563.88;5028895;28;20259;-75
2023/12/26 09:30:21;;;;;;;1.80;0.80;;;;;;;18.57;58.93;100563.41;5010533;28;20172;-74
2023/12/26 09:32:46;;;;;;;1.50;0.70;;;;;;;18.59;58.45;100566.75;5028866;28;20993;-74
2023/12/26 09:35:11;;;;;;;2.80;0.80;;;;;;;18.58;58.21;100570.81;5027057;28;20213;-73
2023/12/26 09:37:38;;;;;;;2.60;0.90;;;;;;;18.56;58.82;100578.91;5010689;28;20161;-73
2023/12/26 09:40:08;;;;;;;2.40;0.93;;;;;;;18.60;58.17;100576.97;4993054;28;20196;-74
2023/12/26 09:42:33;;;;;;;1.77;0.80;;;;;;;18.56;58.44;100576.06;4992466;28;20466;-74
2023/12/26 09:44:59;;;;;;;2.73;1.00;;;;;;;18.56;58.21;100572.38;4996070;28;20426;-73
2023/12/26 09:47:25;;;;;;;4.10;0.90;;;;;;;18.56;59.38;100578.91;4996216;28;20196;-74
2023/12/26 09:49:51;;;;;;;2.37;0.90;;;;;;;18.57;58.68;100586.28;4995113;28;20680;-74
2023/12/26 09:52:16;;;;;;;2.20;1.10;;;;;;;18.59;58.31;100589.63;4999075;28;20442;-74
2023/12/26 09:54:43;;;;;;;10.80;0.90;;;;;;;18.59;58.61;100594.50;5013339;28;20769;-75
2023/12/26 09:57:09;;;;;;;2.80;0.70;;;;;;;18.61;58.66;100600.69;5012561;28;20623;-73
2023/12/26 09:59:36;;;;;;;2.10;0.73;;;;;;;18.57;58.46;100609.16;4993210;28;20415;-74
2023/12/26 10:02:03;;;;;;;2.03;0.93;;;;;;;18.61;58.57;100603.56;4994729;28;20230;-76
2023/12/26 10:04:28;;;;;;;2.00;0.73;;;;;;;18.58;58.90;100607.97;4985293;28;20518;-74
2023/12/26 10:06:53;;;;;;;1.93;1.00;;;;;;;18.59;58.72;100609.63;4989473;28;20420;-72
2023/12/26 10:09:19;;;;;;;2.50;0.90;;;;;;;18.60;58.85;100602.72;5013231;28;20191;-73
2023/12/26 10:11:45;;;;;;;5.43;1.00;;;;;;;18.56;58.45;100607.50;4980420;28;20181;-74
2023/12/26 10:14:10;;;;;;;2.60;0.77;;;;;;;18.59;58.87;100605.94;4992516;28;20176;-74
2023/12/26 10:16:36;;;;;;;2.00;0.80;;;;;;;18.61;58.33;100607.22;5017675;28;20233;-70
2023/12/26 10:19:01;;;;;;;1.70;0.80;;;;;;;18.62;58.35;100616.63;5028619;28;20208;-71
2023/12/26 10:21:26;;;;;;;2.10;0.97;;;;;;;18.60;58.64;100610.44;4998066;28;20160;-70
2023/12/26 10:23:52;;;;;;;2.43;0.90;;;;;;;18.63;58.55;100601.13;5013951;28;20177;-71
2023/12/26 10:26:18;;;;;;;2.07;0.90;;;;;;;18.62;58.21;100596.63;5028475;28;20175;-70
2023/12/26 10:28:43;;;;;;;2.97;1.37;;;;;;;18.60;58.07;100599.84;5017201;28;20204;-71
2023/12/26 10:31:13;;;;;;;2.60;1.00;;;;;;;18.60;58.94;100607.59;4998221;28;20272;-71
2023/12/26 10:33:39;;;;;;;2.43;0.90;;;;;;;18.62;58.25;100599.47;4982149;28;20167;-70
2023/12/26 10:36:04;;;;;;;3.70;0.90;;;;;;;18.62;58.68;100608.06;5027571;28;20470;-71
2023/12/26 10:38:30;;;;;;;2.10;1.07;;;;;;;18.62;58.43;100608.88;4997649;28;20161;-71
2023/12/26 10:40:59;;;;;;;1.97;0.87;;;;;;;18.61;58.24;100607.22;5011323;28;20502;-70
2023/12/26 10:43:31;;;;;;;6.90;0.90;;;;;;;18.62;58.79;100611.72;5028500;28;20181;-71
2023/12/26 10:45:57;;;;;;;1.87;0.87;;;;;;;18.64;58.65;100619.94;5017310;28;20458;-71
2023/12/26 10:48:25;;;;;;;2.27;1.00;;;;;;;18.62;58.76;100622.34;4993584;28;21010;-71
2023/12/26 10:50:50;;;;;;;3.17;1.00;;;;;;;18.61;58.92;100623.56;4993306;28;20522;-71
2023/12/26 10:53:16;;;;;;;1.87;0.77;;;;;;;18.63;58.35;100618.28;4994112;28;20416;-71
2023/12/26 10:55:45;;;;;;;2.47;0.90;;;;;;;18.61;58.40;100618.66;4993094;28;20184;-71
2023/12/26 10:58:11;;;;;;;2.00;0.87;;;;;;;18.62;58.42;100625.22;4993018;28;20508;-71
2023/12/26 11:00:36;;;;;;;4.60;1.20;;;;;;;18.65;58.22;100618.72;4992614;28;20415;-71
2023/12/26 11:03:02;;;;;;;3.20;0.60;;;;;;;18.61;58.70;100612.94;4995569;28;20675;-70
2023/12/26 11:05:27;;;;;;;3.60;1.10;;;;;;;18.61;58.21;100612.94;5012208;28;20591;-70
2023/12/26 11:07:53;;;;;;;1.60;0.80;;;;;;;18.63;58.20;100613.41;5029070;28;20188;-71
2023/12/26 11:10:18;;;;;;;2.10;0.87;;;;;;;18.62;58.34;100614.59;5014959;28;20180;-71
2023/12/26 11:12:43;;;;;;;2.63;0.90;;;;;;;18.62;58.42;100623.16;5015261;28;20243;-71
2023/12/26 11:15:09;;;;;;;2.30;0.87;;;;;;;18.61;58.48;100618.66;5013261;28;20208;-71
2023/12/26 11:17:34;;;;;;;2.17;1.00;;;;;;;18.62;58.32;100631.75;4995967;28;20177;-71